Portada
METAR-TAF:

METAR-TAF

Aeropuertos :

Aeropuerto Internacional de Funafuti

Funafuti, Tuvalu

latitud: 08-31S, longitud: 179-13E, altitud: 1 m

Observación

El informe se hizo hace 16 minutos, a las 09:00 UTC
Viento 4 kt del este
Temperatura 29°C
Humedad 79%
Presión 1010 hPa
Visibilidad 10 km o más
Escasas nubes a una altura de 1800 ft, Cumulus congestus.
Cielo nuboso a una altura de 30000 ft

METAR: NGFU 130900Z 09004KT 9999 FEW018TCU BKN300 29/25 Q1010

Hora: 21:16 (09:16 UTC)

Pronóstico

El informe se hizo hace 3 horas y 57 minutos, a las 05:19 UTC
Pronóstico válido del 13 a las 06 UTC al 14 a las 06 UTC
Viento 5 kt del este
Visibilidad 10 km o más
Escasas nubes a una altura de 1800 ft

TAF: NGFU 130519Z 1306/1406 09005KT 9999 FEW018

Observaciones y pronósticos meteorológicos de más de 4000 aeropuertos (mensajes METAR y TAF).

Los puntos amarillos y rojos representan las estaciones disponibles.

Ponga el ratón en el punto deseado para ver el nombre de la estación.

Haga clic para ver las observaciones y los pronósticos meteorológicos.

Para cambiar el mapa : haga clic en los botones verdes con una cruz de color negro para hacer un zoom, en el botón verde con un guión para alejar o en las flechas verdes para mapas adyacentes.


METAR-TAF: